This is the latest recevied weather packets stored in our database for station/object IR9AK-10. If no packets are shown the sender has not sent any weather packets the latest 10 day(s).
| Time | Temp. | Humidity | Pressure | Rain* | Wind** | Luminosity | Snow |
|---|---|---|---|---|---|---|---|
| 1777998062 | 21.67° C | 59% | 1061.1 hPa | - | - | - | - |
| 1777997463 | 21.67° C | 59% | 1061.1 hPa | - | - | - | - |
| 1777996865 | 21.67° C | 58% | 1061 hPa | - | - | - | - |
| 1777996266 | 22.22° C | 58% | 1061 hPa | - | - | - | - |
| 1777995667 | 22.22° C | 59% | 1061 hPa | - | - | - | - |
| 1777995068 | 22.22° C | 59% | 1061 hPa | - | - | - | - |
| 1777994469 | 22.22° C | 57% | 1061 hPa | - | - | - | - |
| 1777993870 | 22.78° C | 53% | 1061 hPa | - | - | - | - |
| 1777993272 | 23.33° C | 51% | 1060.9 hPa | - | - | - | - |
| 1777992673 | 23.89° C | 48% | 1060.8 hPa | - | - | - | - |
| 1777992074 | 24.44° C | 43% | 1060.7 hPa | - | - | - | - |
| 1777991475 | 25° C | 43% | 1060.6 hPa | - | - | - | - |
| 1777990876 | 23.33° C | 48% | 1060.9 hPa | - | - | - | - |
| 1777989676 | 22.78° C | 49% | 1061.1 hPa | - | - | - | - |
| 1777989078 | 22.78° C | 49% | 1061.2 hPa | - | - | - | - |
| 1777988479 | 22.22° C | 50% | 1061.3 hPa | - | - | - | - |
| 1777987879 | 22.22° C | 51% | 1061.4 hPa | - | - | - | - |
| 1777987279 | 22.22° C | 52% | 1061.2 hPa | - | - | - | - |
| 1777986680 | 22.22° C | 52% | 1061.2 hPa | - | - | - | - |
| 1777986081 | 22.22° C | 57% | 1061.3 hPa | - | - | - | - |
| 1777985483 | 22.78° C | 57% | 1061.3 hPa | - | - | - | - |
| 1777984883 | 22.78° C | 57% | 1061.4 hPa | - | - | - | - |
| 1777984285 | 22.78° C | 56% | 1061.4 hPa | - | - | - | - |
| 1777983686 | 22.22° C | 58% | 1061.6 hPa | - | - | - | - |
| 1777983087 | 22.22° C | 55% | 1061.5 hPa | - | - | - | - |
* Rain since midnight (hover to see other rain measurements)
** Current wind speed in m/s (hover to see current wind gust speed)